createdAt,value
2023-03-26T00:02:45.967Z,9.70
2023-03-26T00:06:30.100Z,9.70
2023-03-26T00:10:11.888Z,9.60
2023-03-26T00:13:56.950Z,9.60
2023-03-26T00:17:41.395Z,9.60
2023-03-26T00:21:28.969Z,9.50
2023-03-26T00:25:11.824Z,9.50
2023-03-26T00:28:54.642Z,9.40
2023-03-26T00:32:39.688Z,9.40
2023-03-26T00:36:25.590Z,9.30
2023-03-26T00:40:12.027Z,9.30
2023-03-26T00:43:57.147Z,9.30
2023-03-26T00:47:40.400Z,9.20
2023-03-26T00:51:22.478Z,9.20
2023-03-26T00:55:04.492Z,9.10
2023-03-26T00:58:50.084Z,9.10
2023-03-26T01:02:33.040Z,9.10
2023-03-26T01:06:27.942Z,9.00
2023-03-26T01:10:14.899Z,9.00
2023-03-26T01:14:10.318Z,9.00
2023-03-26T01:17:57.986Z,9.00
2023-03-26T01:21:40.127Z,8.90
2023-03-26T01:25:25.628Z,8.90
2023-03-26T01:29:18.724Z,8.80
2023-03-26T01:33:30.016Z,8.80
2023-03-26T01:37:41.518Z,8.70
2023-03-26T01:41:44.672Z,8.80
2023-03-26T01:45:31.928Z,8.80
2023-03-26T01:49:17.680Z,8.80
2023-03-26T01:52:59.861Z,8.80
2023-03-26T01:57:17.103Z,8.80
2023-03-26T02:01:24.868Z,8.80
2023-03-26T02:05:16.092Z,8.90
2023-03-26T02:09:09.701Z,8.90
2023-03-26T02:12:52.117Z,8.90
2023-03-26T02:16:34.127Z,8.90
2023-03-26T02:20:18.981Z,8.90
2023-03-26T02:24:04.294Z,8.90
2023-03-26T02:27:47.062Z,8.90
2023-03-26T02:31:30.211Z,8.90
2023-03-26T02:35:13.124Z,8.90
2023-03-26T02:38:58.155Z,8.90
2023-03-26T02:42:40.198Z,8.80
2023-03-26T02:46:21.975Z,8.90
2023-03-26T02:50:04.624Z,8.90
2023-03-26T02:53:47.447Z,8.90
2023-03-26T02:57:29.330Z,8.90
2023-03-26T03:01:11.507Z,8.90
2023-03-26T03:05:01.898Z,8.90
2023-03-26T03:08:49.965Z,8.90
2023-03-26T03:12:32.733Z,8.90
2023-03-26T03:16:14.627Z,8.90
2023-03-26T03:19:56.494Z,8.90
2023-03-26T03:23:38.583Z,8.90
2023-03-26T03:27:22.346Z,8.80
2023-03-26T03:31:05.368Z,8.80
2023-03-26T03:34:49.899Z,8.80
2023-03-26T03:38:31.846Z,8.80
2023-03-26T03:42:13.682Z,8.80
2023-03-26T03:45:55.927Z,8.70
2023-03-26T03:49:38.157Z,8.70
2023-03-26T03:53:20.967Z,8.70
2023-03-26T03:57:03.396Z,8.70
2023-03-26T04:00:45.352Z,8.60
2023-03-26T04:04:27.119Z,8.70
2023-03-26T04:08:09.187Z,8.70
2023-03-26T04:11:51.088Z,8.70
2023-03-26T04:15:33.190Z,8.60
2023-03-26T04:19:16.067Z,8.60
2023-03-26T04:22:58.014Z,8.60
2023-03-26T04:26:40.085Z,8.60
2023-03-26T04:30:22.079Z,8.50
2023-03-26T04:34:20.147Z,8.60
2023-03-26T04:38:06.535Z,8.60
2023-03-26T04:41:48.611Z,8.50
2023-03-26T04:45:31.168Z,8.60
2023-03-26T04:49:12.937Z,8.60
2023-03-26T04:52:58.642Z,8.60
2023-03-26T04:56:48.638Z,8.60
2023-03-26T05:00:30.543Z,8.60
2023-03-26T05:04:13.799Z,8.60
2023-03-26T05:07:56.527Z,8.60
2023-03-26T05:11:38.378Z,8.60
2023-03-26T05:15:20.274Z,8.60
2023-03-26T05:19:05.352Z,8.60
2023-03-26T05:22:49.250Z,8.60
2023-03-26T05:26:33.284Z,8.60
2023-03-26T05:30:17.621Z,8.60
2023-03-26T05:34:03.313Z,8.60
2023-03-26T05:37:49.717Z,8.60
2023-03-26T05:41:31.550Z,8.60
2023-03-26T05:45:15.012Z,8.60
2023-03-26T05:48:56.786Z,8.60
2023-03-26T05:52:38.617Z,8.60
2023-03-26T05:56:20.684Z,8.70
2023-03-26T06:00:04.551Z,8.60
2023-03-26T06:03:47.102Z,8.60
2023-03-26T06:07:29.218Z,8.60
2023-03-26T06:11:12.603Z,8.50
2023-03-26T06:14:54.385Z,8.50
2023-03-26T06:18:36.714Z,8.40
2023-03-26T06:22:18.591Z,8.30
2023-03-26T06:26:04.517Z,8.40
2023-03-26T06:29:46.332Z,8.40
2023-03-26T06:33:29.136Z,8.50
2023-03-26T06:37:10.975Z,8.50
2023-03-26T06:40:53.140Z,8.60
2023-03-26T06:44:35.856Z,8.60
2023-03-26T06:48:20.011Z,8.50
2023-03-26T06:52:02.931Z,8.50
2023-03-26T06:55:44.696Z,8.50
2023-03-26T06:59:26.452Z,8.50
2023-03-26T07:03:08.808Z,8.60
2023-03-26T07:06:50.637Z,8.70
2023-03-26T07:10:32.981Z,8.70
2023-03-26T07:14:14.807Z,8.70
2023-03-26T07:17:56.636Z,8.70
2023-03-26T07:21:38.646Z,8.80
2023-03-26T07:25:21.271Z,8.80
2023-03-26T07:29:32.789Z,8.80
2023-03-26T07:33:29.032Z,8.80
2023-03-26T07:37:16.876Z,8.90
2023-03-26T07:41:29.605Z,8.90
2023-03-26T07:45:39.679Z,8.80
2023-03-26T07:49:21.883Z,8.80
2023-03-26T07:53:04.182Z,8.90
2023-03-26T07:56:54.016Z,8.90
2023-03-26T08:00:52.313Z,8.90
2023-03-26T08:04:58.589Z,8.90
2023-03-26T08:08:46.616Z,8.90
2023-03-26T08:12:45.462Z,9.00
2023-03-26T08:16:52.051Z,9.00
2023-03-26T08:20:45.703Z,9.00
2023-03-26T08:25:20.430Z,9.00
2023-03-26T08:29:26.721Z,9.00
2023-03-26T08:33:19.497Z,9.00
2023-03-26T08:37:01.540Z,9.00
2023-03-26T08:40:55.475Z,8.90
2023-03-26T08:45:12.398Z,9.00
2023-03-26T08:49:15.488Z,9.00
2023-03-26T08:53:08.941Z,9.00
2023-03-26T08:57:18.144Z,9.00
2023-03-26T09:01:50.180Z,9.00
2023-03-26T09:05:57.895Z,9.10
2023-03-26T09:09:39.619Z,9.30
2023-03-26T09:13:46.026Z,9.30
2023-03-26T09:17:57.307Z,9.40
2023-03-26T09:22:21.297Z,9.60
2023-03-26T09:26:17.681Z,9.80
2023-03-26T09:30:12.473Z,9.90
2023-03-26T09:34:07.737Z,10.10
2023-03-26T09:38:12.785Z,10.30
2023-03-26T09:42:00.594Z,10.30
2023-03-26T09:46:03.195Z,10.40
2023-03-26T09:50:04.178Z,10.30
2023-03-26T09:54:17.612Z,10.30
2023-03-26T09:58:11.140Z,10.20
2023-03-26T10:02:47.747Z,10.10
2023-03-26T10:06:54.264Z,10.20
2023-03-26T10:10:45.039Z,10.10
2023-03-26T10:14:54.543Z,10.10
2023-03-26T10:18:56.495Z,10.10
2023-03-26T10:22:44.124Z,10.20
2023-03-26T10:27:08.689Z,10.20
2023-03-26T10:31:30.340Z,10.20
2023-03-26T10:35:37.169Z,10.30
2023-03-26T10:39:37.622Z,10.30
2023-03-26T10:43:28.505Z,10.50
2023-03-26T10:47:47.156Z,10.60
2023-03-26T10:51:40.749Z,10.60
2023-03-26T10:55:36.501Z,10.70
2023-03-26T10:59:19.094Z,10.80
2023-03-26T11:03:15.446Z,10.90
2023-03-26T11:07:18.339Z,11.00
2023-03-26T11:11:20.441Z,11.30
2023-03-26T11:15:20.522Z,11.60
2023-03-26T11:19:37.422Z,11.80
2023-03-26T11:23:40.329Z,11.80
2023-03-26T11:27:48.205Z,11.80
2023-03-26T11:35:44.076Z,12.30
2023-03-26T11:39:34.688Z,12.30
2023-03-26T11:43:22.273Z,12.40
2023-03-26T11:47:10.246Z,12.90
2023-03-26T11:50:55.649Z,13.30
2023-03-26T11:54:38.823Z,13.60
2023-03-26T11:59:00.969Z,13.40
2023-03-26T12:02:43.668Z,13.10
2023-03-26T12:06:30.098Z,12.70
2023-03-26T12:10:24.884Z,12.30
2023-03-26T12:14:06.976Z,12.00
2023-03-26T12:17:58.024Z,11.90
2023-03-26T12:21:51.592Z,11.80
2023-03-26T12:25:36.153Z,11.70
2023-03-26T12:29:19.166Z,11.70
2023-03-26T12:33:07.301Z,11.60
2023-03-26T12:36:55.424Z,11.50
2023-03-26T12:40:39.545Z,11.30
2023-03-26T12:44:54.550Z,11.30
2023-03-26T12:48:38.655Z,11.10
2023-03-26T12:52:35.175Z,11.00
2023-03-26T12:56:36.627Z,10.90
2023-03-26T13:00:24.482Z,10.80
2023-03-26T13:04:24.893Z,10.80
2023-03-26T13:08:34.469Z,10.80
2023-03-26T13:12:17.352Z,10.80
2023-03-26T13:16:22.732Z,10.80
2023-03-26T13:20:21.436Z,10.80
2023-03-26T13:24:05.981Z,10.80
2023-03-26T13:28:12.563Z,10.80
2023-03-26T13:32:30.379Z,10.90
2023-03-26T13:36:44.243Z,11.20
2023-03-26T13:40:37.414Z,11.60
2023-03-26T13:44:37.569Z,11.70
2023-03-26T13:48:39.630Z,11.80
2023-03-26T13:52:46.054Z,11.80
2023-03-26T13:56:43.273Z,11.90
2023-03-26T14:00:38.076Z,11.90
2023-03-26T14:04:35.632Z,11.80
2023-03-26T14:08:32.659Z,11.70
2023-03-26T14:12:29.871Z,11.60
2023-03-26T14:16:15.002Z,11.60
2023-03-26T14:20:02.767Z,11.60
2023-03-26T14:24:26.332Z,11.80
2023-03-26T14:28:29.089Z,11.80
2023-03-26T14:32:24.611Z,11.90
2023-03-26T14:36:40.355Z,11.80
2023-03-26T14:40:35.632Z,11.70
2023-03-26T14:45:03.362Z,11.60
2023-03-26T14:48:48.332Z,11.50
2023-03-26T14:52:52.759Z,11.60
2023-03-26T14:57:12.419Z,11.70
2023-03-26T15:01:25.361Z,11.80
2023-03-26T15:05:19.484Z,11.90
2023-03-26T15:09:34.924Z,12.10
2023-03-26T15:13:35.230Z,12.00
2023-03-26T15:17:19.718Z,11.90
2023-03-26T15:21:28.176Z,11.90
2023-03-26T15:25:31.728Z,11.80
2023-03-26T15:29:36.858Z,11.70
2023-03-26T15:33:39.810Z,11.60
2023-03-26T15:37:39.803Z,11.60
2023-03-26T15:41:58.151Z,11.90
2023-03-26T15:45:47.348Z,11.90
2023-03-26T15:49:41.887Z,12.00
2023-03-26T15:53:29.421Z,12.00
2023-03-26T15:57:26.684Z,12.20
2023-03-26T16:01:46.483Z,12.20
2023-03-26T16:05:28.299Z,12.20
2023-03-26T16:09:35.459Z,12.20
2023-03-26T16:13:20.125Z,12.30
2023-03-26T16:17:06.307Z,12.30
2023-03-26T16:20:52.869Z,12.40
2023-03-26T16:24:42.157Z,12.50
2023-03-26T16:28:28.464Z,12.60
2023-03-26T16:32:13.441Z,12.60
2023-03-26T16:36:14.203Z,12.80
2023-03-26T16:40:22.464Z,12.80
2023-03-26T16:44:38.110Z,12.40
2023-03-26T16:48:32.281Z,12.10
2023-03-26T16:52:20.454Z,11.90
2023-03-26T16:56:28.001Z,11.70
2023-03-26T17:00:13.844Z,11.50
2023-03-26T17:04:07.113Z,11.40
2023-03-26T17:08:36.605Z,11.30
2023-03-26T17:12:38.140Z,11.20
2023-03-26T17:16:28.768Z,11.10
2023-03-26T17:20:25.320Z,11.00
2023-03-26T17:24:49.979Z,10.90
2023-03-26T17:29:09.327Z,10.90
2023-03-26T17:33:23.787Z,10.80
2023-03-26T17:37:32.114Z,10.80
2023-03-26T17:41:35.777Z,10.80
2023-03-26T17:45:30.449Z,10.80
2023-03-26T17:49:12.321Z,10.70
2023-03-26T17:53:05.943Z,10.70
2023-03-26T17:56:48.811Z,10.70
2023-03-26T18:00:44.989Z,10.70
2023-03-26T18:04:40.472Z,10.70
2023-03-26T18:08:54.640Z,10.60
2023-03-26T18:12:42.859Z,10.60
2023-03-26T18:16:45.732Z,10.60
2023-03-26T18:20:29.100Z,10.60
2023-03-26T18:24:17.363Z,10.50
2023-03-26T18:28:01.940Z,10.40
2023-03-26T18:31:45.645Z,10.30
2023-03-26T18:35:38.123Z,10.20
2023-03-26T18:39:20.266Z,10.10
2023-03-26T18:43:02.146Z,10.00
2023-03-26T18:46:44.055Z,9.90
2023-03-26T18:50:29.986Z,9.80
2023-03-26T18:54:19.084Z,9.80
2023-03-26T18:58:20.201Z,9.70
2023-03-26T19:02:06.800Z,9.60
2023-03-26T19:05:49.833Z,9.50
2023-03-26T19:09:32.841Z,9.40
2023-03-26T19:13:15.464Z,9.30
2023-03-26T19:17:02.098Z,9.30
2023-03-26T19:20:50.441Z,9.30
2023-03-26T19:24:32.728Z,9.20
2023-03-26T19:28:24.533Z,9.10
2023-03-26T19:32:21.746Z,9.00
2023-03-26T19:36:19.385Z,9.00
2023-03-26T19:40:14.186Z,8.90
2023-03-26T19:44:00.088Z,8.90
2023-03-26T19:47:52.247Z,8.80
2023-03-26T19:51:40.993Z,8.80
2023-03-26T19:55:24.234Z,8.70
2023-03-26T19:59:06.001Z,8.70
2023-03-26T20:02:49.355Z,8.60
2023-03-26T20:06:42.581Z,8.60
2023-03-26T20:10:27.075Z,8.50
2023-03-26T20:14:15.456Z,8.50
2023-03-26T20:17:57.457Z,8.50
2023-03-26T20:21:41.221Z,8.40
2023-03-26T20:25:34.611Z,8.40
2023-03-26T20:29:17.488Z,8.30
2023-03-26T20:33:12.736Z,8.30
2023-03-26T20:36:55.908Z,8.30
2023-03-26T20:40:38.667Z,8.30
2023-03-26T20:44:21.907Z,8.30
2023-03-26T20:48:03.848Z,8.30
2023-03-26T20:51:46.697Z,8.40
2023-03-26T20:55:28.837Z,8.50
2023-03-26T20:59:14.009Z,8.50
2023-03-26T21:02:56.938Z,8.60
2023-03-26T21:06:38.945Z,8.60
2023-03-26T21:10:21.805Z,8.70
2023-03-26T21:14:23.543Z,8.60
2023-03-26T21:18:05.962Z,8.60
2023-03-26T21:22:14.175Z,8.60
2023-03-26T21:26:12.413Z,8.70
2023-03-26T21:29:55.306Z,8.70
2023-03-26T21:33:37.164Z,8.70
2023-03-26T21:37:19.333Z,8.70
2023-03-26T21:41:02.233Z,8.70
2023-03-26T21:44:44.690Z,8.80
2023-03-26T21:48:28.441Z,8.80
2023-03-26T21:52:15.576Z,8.80
2023-03-26T21:56:18.290Z,8.80
2023-03-26T22:00:07.115Z,8.80
2023-03-26T22:04:07.871Z,8.90
2023-03-26T22:08:03.117Z,8.90
2023-03-26T22:11:45.044Z,8.90
2023-03-26T22:15:30.537Z,8.90
2023-03-26T22:19:13.768Z,8.90
2023-03-26T22:22:55.955Z,8.90
2023-03-26T22:26:37.815Z,8.90
2023-03-26T22:30:20.827Z,8.90
2023-03-26T22:34:02.886Z,8.90
2023-03-26T22:37:45.051Z,8.90
2023-03-26T22:41:27.297Z,8.90
2023-03-26T22:45:10.170Z,8.90
2023-03-26T22:48:52.004Z,8.90
2023-03-26T22:52:35.880Z,8.90
2023-03-26T22:56:18.763Z,8.90
2023-03-26T23:00:16.236Z,8.90
2023-03-26T23:03:58.380Z,8.90
2023-03-26T23:07:40.494Z,8.90
2023-03-26T23:11:22.576Z,8.90
2023-03-26T23:15:05.645Z,8.90
2023-03-26T23:18:47.773Z,9.00
2023-03-26T23:22:29.791Z,9.00
2023-03-26T23:26:11.863Z,9.00
2023-03-26T23:29:53.621Z,9.00
2023-03-26T23:33:37.688Z,9.00
2023-03-26T23:37:23.627Z,9.00
2023-03-26T23:41:06.825Z,9.00
2023-03-26T23:44:49.137Z,8.90
2023-03-26T23:48:32.864Z,8.90
2023-03-26T23:52:14.844Z,8.90
2023-03-26T23:55:58.043Z,8.90
2023-03-26T23:59:41.441Z,8.90
